Time;durP1;ratioP1;P1;durP2;ratioP2;P2;SDS_P1;SDS_P2;PMS_P1;PMS_P2;Temp;Humidity;BMP_temperature;BMP_pressure;BME280_temperature;BME280_humidity;BME280_pressure;Samples;Min_cycle;Max_cycle;Signal;HPM_P1;HPM_P2
2021/05/24 00:02:16;;;;;;;1.10;0.95;;;17.00;61.40;;;;;;5007043;28;20030;-84
2021/05/24 00:04:43;;;;;;;0.88;0.88;;;17.00;61.50;;;;;;4994416;28;20436;-85
2021/05/24 00:07:08;;;;;;;1.20;0.93;;;17.00;61.40;;;;;;4981963;28;20080;-84
2021/05/24 00:09:34;;;;;;;0.88;0.80;;;17.00;61.50;;;;;;5030231;28;20034;-85
2021/05/24 00:12:02;;;;;;;0.70;0.70;;;16.90;61.50;;;;;;5004179;28;20026;-85
2021/05/24 00:14:31;;;;;;;1.15;0.90;;;16.90;61.50;;;;;;5013223;28;20046;-84
2021/05/24 00:16:57;;;;;;;0.88;0.85;;;16.90;61.50;;;;;;5029987;28;20084;-85
2021/05/24 00:19:23;;;;;;;1.08;0.82;;;16.90;61.50;;;;;;4996669;28;20529;-84
2021/05/24 00:21:48;;;;;;;1.25;0.80;;;16.90;61.50;;;;;;4997104;28;20486;-84
2021/05/24 00:24:14;;;;;;;1.20;1.10;;;16.90;61.50;;;;;;5013129;28;20108;-84
2021/05/24 00:26:40;;;;;;;1.00;0.90;;;16.90;61.60;;;;;;5007640;28;20028;-84
2021/05/24 00:29:06;;;;;;;1.50;0.93;;;16.90;61.60;;;;;;5005005;28;20117;-84
2021/05/24 00:31:32;;;;;;;0.82;0.80;;;16.80;61.60;;;;;;4996740;28;20053;-84
2021/05/24 00:33:58;;;;;;;0.88;0.88;;;16.80;61.60;;;;;;4993492;28;20026;-84
2021/05/24 00:36:24;;;;;;;1.30;0.98;;;16.80;61.60;;;;;;4983768;28;20026;-85
2021/05/24 00:38:49;;;;;;;1.00;0.80;;;16.80;61.60;;;;;;5010042;28;20027;-84
2021/05/24 00:41:16;;;;;;;1.27;1.17;;;16.80;61.60;;;;;;5003023;28;20030;-84
2021/05/24 00:43:41;;;;;;;2.15;0.90;;;16.80;61.70;;;;;;4990597;28;20069;-85
2021/05/24 00:46:07;;;;;;;1.10;1.00;;;16.80;61.70;;;;;;4979392;28;20038;-84
2021/05/24 00:48:33;;;;;;;1.67;0.90;;;16.80;61.70;;;;;;5009927;28;20022;-85
2021/05/24 00:50:59;;;;;;;1.42;1.10;;;16.80;61.70;;;;;;5029737;28;20037;-84
2021/05/24 00:53:25;;;;;;;1.10;0.90;;;16.80;61.80;;;;;;4996446;28;20029;-86
2021/05/24 00:55:52;;;;;;;0.80;0.80;;;16.70;61.70;;;;;;4996386;28;20034;-85
2021/05/24 00:58:18;;;;;;;0.77;0.77;;;16.70;61.80;;;;;;4999926;28;20019;-85
2021/05/24 01:00:46;;;;;;;1.08;0.98;;;16.70;61.80;;;;;;5010218;28;20037;-85
2021/05/24 01:03:13;;;;;;;0.93;0.85;;;16.70;61.70;;;;;;5009459;28;20369;-84
2021/05/24 01:05:41;;;;;;;1.48;0.80;;;16.70;61.70;;;;;;5011929;28;20038;-85
2021/05/24 01:08:09;;;;;;;1.17;1.05;;;16.70;61.80;;;;;;5012562;28;20026;-85
2021/05/24 01:10:35;;;;;;;1.13;0.73;;;16.70;61.80;;;;;;5013889;28;20033;-85
2021/05/24 01:13:03;;;;;;;0.82;0.80;;;16.60;61.70;;;;;;4993543;28;20474;-85
2021/05/24 01:15:29;;;;;;;1.20;0.90;;;16.70;61.90;;;;;;5006068;28;20045;-84
2021/05/24 01:17:55;;;;;;;0.85;0.85;;;16.60;61.80;;;;;;4992221;28;20034;-85
2021/05/24 01:20:22;;;;;;;1.23;0.80;;;16.60;61.80;;;;;;4989637;28;20540;-85
2021/05/24 01:22:56;;;;;;;1.08;0.98;;;16.60;61.80;;;;;;4993372;28;20105;-84
2021/05/24 01:25:22;;;;;;;0.80;0.80;;;16.60;61.80;;;;;;5009351;28;20398;-88
2021/05/24 01:27:48;;;;;;;1.40;0.80;;;16.60;61.80;;;;;;5014215;28;20041;-85
2021/05/24 01:30:14;;;;;;;1.10;0.88;;;16.60;61.90;;;;;;5010871;28;20022;-85
2021/05/24 01:32:40;;;;;;;0.80;0.80;;;16.60;61.90;;;;;;4995417;28;20025;-85
2021/05/24 01:35:07;;;;;;;0.77;0.73;;;16.60;61.90;;;;;;5012853;28;20053;-85
2021/05/24 01:37:32;;;;;;;0.70;0.70;;;16.50;61.80;;;;;;4993305;28;20030;-85
2021/05/24 01:40:00;;;;;;;1.48;0.70;;;16.50;61.90;;;;;;5010374;28;20034;-85
2021/05/24 01:42:26;;;;;;;0.80;0.80;;;16.50;62.20;;;;;;4985227;28;20050;-84
2021/05/24 01:44:51;;;;;;;2.30;0.98;;;16.50;61.90;;;;;;5011753;28;20033;-86
2021/05/24 01:47:17;;;;;;;1.10;0.80;;;16.50;61.90;;;;;;5012343;28;20034;-85
2021/05/24 01:49:47;;;;;;;1.25;0.90;;;16.50;61.90;;;;;;5012298;28;20467;-85
2021/05/24 01:52:14;;;;;;;0.80;0.80;;;16.50;62.60;;;;;;4996494;28;20037;-84
2021/05/24 01:54:45;;;;;;;0.82;0.82;;;16.50;62.00;;;;;;5002364;28;20530;-84
2021/05/24 01:57:12;;;;;;;0.73;0.73;;;16.50;62.00;;;;;;5012036;28;20030;-83
2021/05/24 01:59:38;;;;;;;0.75;0.75;;;16.50;62.00;;;;;;5012027;28;20022;-86
2021/05/24 02:02:04;;;;;;;0.70;0.70;;;16.50;62.00;;;;;;5005421;28;20030;-85
2021/05/24 02:04:30;;;;;;;0.73;0.73;;;16.50;62.00;;;;;;5028591;28;20033;-88
2021/05/24 02:06:57;;;;;;;0.75;0.75;;;16.50;62.10;;;;;;4995943;28;20038;-84
2021/05/24 02:09:23;;;;;;;1.67;0.90;;;16.40;62.00;;;;;;4995924;28;20015;-84
2021/05/24 02:11:49;;;;;;;0.70;0.70;;;16.40;62.00;;;;;;5006784;28;20046;-85
2021/05/24 02:14:16;;;;;;;0.95;0.70;;;16.40;62.10;;;;;;4997091;28;20025;-84
2021/05/24 02:16:47;;;;;;;1.08;0.90;;;16.40;62.10;;;;;;4989389;28;20039;-85
2021/05/24 02:19:14;;;;;;;0.77;0.70;;;16.40;62.10;;;;;;5008135;28;20041;-85
2021/05/24 02:21:40;;;;;;;0.90;0.88;;;16.40;62.10;;;;;;5013260;28;20033;-84
2021/05/24 02:24:08;;;;;;;0.80;0.80;;;16.40;62.10;;;;;;5011885;28;20041;-84
2021/05/24 02:26:35;;;;;;;0.80;0.80;;;16.40;62.10;;;;;;5011735;28;20037;-85
2021/05/24 02:29:02;;;;;;;0.80;0.80;;;16.30;62.10;;;;;;5028212;28;20090;-84
2021/05/24 02:31:27;;;;;;;1.40;0.90;;;16.40;62.20;;;;;;4985214;28;20031;-85
2021/05/24 02:33:53;;;;;;;0.63;0.63;;;16.30;62.10;;;;;;5010987;28;20084;-85
2021/05/24 02:36:21;;;;;;;0.60;0.60;;;16.30;62.10;;;;;;5011491;28;20034;-84
2021/05/24 02:38:48;;;;;;;0.70;0.70;;;16.30;62.10;;;;;;5014606;28;20030;-85
2021/05/24 02:41:14;;;;;;;0.70;0.70;;;16.30;62.10;;;;;;5016276;28;20545;-84
2021/05/24 02:43:40;;;;;;;0.98;0.63;;;16.30;62.20;;;;;;4998437;28;20070;-85
2021/05/24 02:46:06;;;;;;;0.75;0.75;;;16.30;62.10;;;;;;5012976;28;20069;-85
2021/05/24 02:48:32;;;;;;;0.82;0.80;;;16.30;62.20;;;;;;4991465;28;20080;-85
2021/05/24 02:50:58;;;;;;;0.70;0.70;;;16.30;62.20;;;;;;5027016;28;20023;-86
2021/05/24 02:53:23;;;;;;;0.70;0.60;;;16.30;62.20;;;;;;5015311;28;20088;-85
2021/05/24 02:55:49;;;;;;;0.60;0.60;;;16.30;62.20;;;;;;5032201;28;20042;-85
2021/05/24 02:58:15;;;;;;;1.13;0.90;;;16.20;62.20;;;;;;4999468;28;20084;-85
2021/05/24 03:00:41;;;;;;;0.70;0.70;;;16.20;62.10;;;;;;4996538;28;20027;-85
2021/05/24 03:03:08;;;;;;;0.93;0.80;;;16.20;62.20;;;;;;4980050;28;20038;-86
2021/05/24 03:05:35;;;;;;;1.27;0.70;;;16.30;62.30;;;;;;5025079;28;20475;-85
2021/05/24 03:08:01;;;;;;;0.80;0.80;;;16.20;62.30;;;;;;5015322;28;20014;-85
2021/05/24 03:10:27;;;;;;;0.98;0.80;;;16.30;62.30;;;;;;4999006;28;20033;-84
2021/05/24 03:12:55;;;;;;;0.70;0.70;;;16.20;62.20;;;;;;5012019;28;20061;-84
2021/05/24 03:15:21;;;;;;;1.20;0.90;;;16.20;62.30;;;;;;5005514;28;20030;-85
2021/05/24 03:17:46;;;;;;;0.93;0.80;;;16.20;62.30;;;;;;4998715;28;20045;-84
2021/05/24 03:20:14;;;;;;;0.77;0.70;;;16.20;62.30;;;;;;5015498;28;20054;-86
2021/05/24 03:22:41;;;;;;;0.70;0.70;;;16.20;62.30;;;;;;5007707;28;20022;-85
2021/05/24 03:25:09;;;;;;;0.82;0.70;;;16.20;62.30;;;;;;4998496;28;20113;-84
2021/05/24 03:27:34;;;;;;;1.25;1.00;;;16.20;62.30;;;;;;5014855;28;20033;-86
2021/05/24 03:30:00;;;;;;;0.65;0.65;;;16.20;62.30;;;;;;5031637;28;20040;-85
2021/05/24 03:32:26;;;;;;;0.60;0.60;;;16.20;62.40;;;;;;5015086;28;20034;-85
2021/05/24 03:34:52;;;;;;;1.08;0.80;;;16.10;62.30;;;;;;5015309;28;20030;-85
2021/05/24 03:37:18;;;;;;;1.15;0.80;;;16.20;62.40;;;;;;5031465;28;20057;-86
2021/05/24 03:39:44;;;;;;;1.15;0.88;;;16.20;62.40;;;;;;5030590;28;20045;-85
2021/05/24 03:42:10;;;;;;;0.80;0.80;;;16.20;62.50;;;;;;5014647;28;20046;-85
2021/05/24 03:44:41;;;;;;;0.68;0.65;;;16.10;62.40;;;;;;5014696;28;20026;-86
2021/05/24 03:47:07;;;;;;;3.60;0.90;;;16.10;62.40;;;;;;5014512;28;20061;-85
2021/05/24 03:49:33;;;;;;;1.13;0.88;;;16.10;62.40;;;;;;4996284;28;20030;-84
2021/05/24 03:51:59;;;;;;;1.05;0.70;;;16.10;62.40;;;;;;5010163;28;20034;-85
2021/05/24 03:54:24;;;;;;;0.70;0.70;;;16.10;62.40;;;;;;4997892;28;20033;-85
2021/05/24 03:56:50;;;;;;;0.95;0.70;;;16.10;63.10;;;;;;4992391;28;20030;-85
2021/05/24 03:59:16;;;;;;;0.63;0.63;;;16.10;62.40;;;;;;4997974;28;20018;-87
2021/05/24 04:01:42;;;;;;;0.60;0.60;;;16.10;62.50;;;;;;4998033;28;20073;-86
2021/05/24 04:04:08;;;;;;;0.65;0.65;;;16.10;62.50;;;;;;5013852;28;20073;-85
2021/05/24 04:06:35;;;;;;;0.70;0.70;;;16.10;62.50;;;;;;5020958;28;20034;-85
2021/05/24 04:09:02;;;;;;;0.68;0.68;;;16.00;62.40;;;;;;4992942;28;20034;-85
2021/05/24 04:11:28;;;;;;;1.00;0.73;;;16.00;62.50;;;;;;4998252;28;20026;-87
2021/05/24 04:13:55;;;;;;;0.80;0.80;;;16.10;62.50;;;;;;5011185;28;20041;-87
2021/05/24 04:16:21;;;;;;;0.68;0.68;;;16.00;62.50;;;;;;5007408;28;20030;-85
2021/05/24 04:18:49;;;;;;;0.80;0.80;;;16.10;62.60;;;;;;4987067;28;20097;-85
2021/05/24 04:21:15;;;;;;;1.02;0.73;;;16.00;62.60;;;;;;5011190;28;20034;-85
2021/05/24 04:23:45;;;;;;;1.52;1.10;;;16.00;62.60;;;;;;5005160;28;20100;-85
2021/05/24 04:26:13;;;;;;;0.60;0.60;;;16.00;62.60;;;;;;5009384;28;20042;-86
2021/05/24 04:28:38;;;;;;;0.80;0.80;;;16.00;62.60;;;;;;5012651;28;20022;-90
2021/05/24 04:31:04;;;;;;;0.80;0.80;;;16.00;62.60;;;;;;4996324;28;20061;-86
2021/05/24 04:33:30;;;;;;;0.70;0.70;;;16.00;62.60;;;;;;4996998;28;20030;-85
2021/05/24 04:35:57;;;;;;;0.60;0.60;;;16.00;62.70;;;;;;4997520;28;20091;-85
2021/05/24 04:38:24;;;;;;;0.82;0.73;;;16.00;62.70;;;;;;5013991;28;20101;-86
2021/05/24 04:40:50;;;;;;;0.68;0.68;;;16.00;62.70;;;;;;5004586;28;20029;-85
2021/05/24 04:43:16;;;;;;;0.93;0.70;;;16.00;62.70;;;;;;4996792;28;20045;-86
2021/05/24 04:45:42;;;;;;;1.08;0.80;;;16.00;62.70;;;;;;5009639;28;20390;-86
2021/05/24 04:48:08;;;;;;;0.80;0.80;;;15.90;62.70;;;;;;4991346;28;20030;-84
2021/05/24 04:50:34;;;;;;;1.00;0.80;;;15.90;62.70;;;;;;4995432;28;20088;-85
2021/05/24 04:53:00;;;;;;;1.23;0.75;;;16.00;62.80;;;;;;5009394;28;20032;-85
2021/05/24 04:55:25;;;;;;;1.23;0.80;;;15.90;62.70;;;;;;5029459;28;20026;-85
2021/05/24 04:57:51;;;;;;;0.70;0.70;;;15.90;62.70;;;;;;5011182;28;20033;-84
2021/05/24 05:00:17;;;;;;;0.70;0.70;;;15.90;62.70;;;;;;4996460;28;20049;-86
2021/05/24 05:02:43;;;;;;;0.88;0.70;;;15.90;62.80;;;;;;5001732;28;20438;-86
2021/05/24 05:05:09;;;;;;;0.82;0.82;;;15.90;62.70;;;;;;4992843;28;20039;-86
2021/05/24 05:07:35;;;;;;;0.70;0.70;;;15.90;62.80;;;;;;4994635;28;20034;-85
2021/05/24 05:10:02;;;;;;;0.65;0.65;;;15.90;62.80;;;;;;5012649;28;20081;-85
2021/05/24 05:12:28;;;;;;;0.70;0.70;;;15.90;62.80;;;;;;4979260;28;20035;-85
2021/05/24 05:14:55;;;;;;;0.75;0.70;;;15.90;62.70;;;;;;5011620;28;20022;-85
2021/05/24 05:17:21;;;;;;;0.82;0.82;;;15.90;62.70;;;;;;5012850;28;20455;-85
2021/05/24 05:19:47;;;;;;;1.38;0.77;;;15.90;62.70;;;;;;5012245;28;20484;-84
2021/05/24 05:22:13;;;;;;;0.80;0.80;;;15.90;62.70;;;;;;5028952;28;20057;-85
2021/05/24 05:24:38;;;;;;;1.20;0.80;;;15.90;62.70;;;;;;5012994;28;20030;-85
2021/05/24 05:27:05;;;;;;;1.02;0.77;;;15.90;63.30;;;;;;5028773;28;20455;-87
2021/05/24 05:29:30;;;;;;;0.93;0.80;;;15.90;62.70;;;;;;4992427;28;20031;-85
2021/05/24 05:31:56;;;;;;;0.70;0.70;;;15.90;62.70;;;;;;5026859;28;20045;-86
2021/05/24 05:34:22;;;;;;;1.25;0.80;;;15.90;62.70;;;;;;5009175;28;20036;-85
2021/05/24 05:36:48;;;;;;;0.88;0.80;;;15.90;62.60;;;;;;4995619;28;20069;-85
2021/05/24 05:39:14;;;;;;;0.85;0.85;;;15.90;62.60;;;;;;4979998;28;20025;-84
2021/05/24 05:41:39;;;;;;;0.60;0.60;;;15.90;62.70;;;;;;5007051;28;20042;-85
2021/05/24 05:44:06;;;;;;;1.13;0.80;;;15.90;62.70;;;;;;5011917;28;20482;-85
2021/05/24 05:46:33;;;;;;;0.70;0.70;;;15.90;62.70;;;;;;4995921;28;20130;-86
2021/05/24 05:48:59;;;;;;;0.60;0.60;;;15.90;62.60;;;;;;4996080;28;20095;-85
2021/05/24 05:51:25;;;;;;;0.60;0.60;;;15.90;62.60;;;;;;5012337;28;20026;-89
2021/05/24 05:53:55;;;;;;;0.95;0.68;;;15.90;62.60;;;;;;4995636;28;20041;-85
2021/05/24 05:56:21;;;;;;;1.00;0.80;;;15.90;62.60;;;;;;5013435;28;20092;-85
2021/05/24 05:58:47;;;;;;;0.63;0.63;;;15.90;62.60;;;;;;4999270;28;20395;-86
2021/05/24 06:01:13;;;;;;;0.85;0.80;;;15.90;62.60;;;;;;5011583;28;20025;-85
2021/05/24 06:03:39;;;;;;;1.13;0.80;;;15.90;63.20;;;;;;4996053;28;20034;-84
2021/05/24 06:06:05;;;;;;;0.98;0.90;;;15.90;62.60;;;;;;4996365;28;20395;-84
2021/05/24 06:08:31;;;;;;;0.63;0.63;;;15.90;62.60;;;;;;4976441;28;20105;-84
2021/05/24 06:10:57;;;;;;;1.65;0.80;;;15.90;62.60;;;;;;4991345;28;20479;-85
2021/05/24 06:13:24;;;;;;;0.70;0.70;;;15.90;62.60;;;;;;4993636;28;20027;-85
2021/05/24 06:15:50;;;;;;;0.70;0.70;;;15.90;62.60;;;;;;5010692;28;20109;-85
2021/05/24 06:18:16;;;;;;;0.88;0.70;;;15.90;62.60;;;;;;5015995;28;20026;-85
2021/05/24 06:20:43;;;;;;;0.70;0.70;;;15.90;62.60;;;;;;4998560;28;20022;-86
2021/05/24 06:23:10;;;;;;;1.63;0.70;;;16.00;62.70;;;;;;4995879;28;20022;-85
2021/05/24 06:25:37;;;;;;;0.75;0.75;;;16.00;62.70;;;;;;4988440;28;20092;-85
2021/05/24 06:28:03;;;;;;;0.80;0.80;;;16.00;62.80;;;;;;4998338;28;20084;-86
2021/05/24 06:30:29;;;;;;;0.77;0.70;;;16.00;62.80;;;;;;5004202;28;20029;-85
2021/05/24 06:32:55;;;;;;;0.82;0.82;;;16.00;62.80;;;;;;5012278;28;20029;-86
2021/05/24 06:35:21;;;;;;;1.77;0.93;;;16.00;62.80;;;;;;5014200;28;20075;-86
2021/05/24 06:37:47;;;;;;;0.80;0.80;;;16.00;62.80;;;;;;5003881;28;20038;-86
2021/05/24 06:40:14;;;;;;;0.70;0.70;;;16.00;62.90;;;;;;4979888;28;20475;-85
2021/05/24 06:42:40;;;;;;;1.10;0.88;;;16.00;62.90;;;;;;5032227;28;20061;-86
2021/05/24 06:45:09;;;;;;;1.13;0.90;;;16.00;62.90;;;;;;4997586;28;20084;-85
2021/05/24 06:47:35;;;;;;;0.70;0.70;;;16.10;62.90;;;;;;4998876;28;20121;-87
2021/05/24 06:50:02;;;;;;;1.23;0.80;;;16.00;62.90;;;;;;5011750;28;20041;-86
2021/05/24 06:52:27;;;;;;;0.70;0.70;;;16.10;62.90;;;;;;4999185;28;20462;-87
2021/05/24 06:54:53;;;;;;;0.70;0.70;;;16.10;63.00;;;;;;5015163;28;20117;-83
2021/05/24 06:57:19;;;;;;;0.90;0.90;;;16.10;62.90;;;;;;5011263;28;20044;-82
2021/05/24 06:59:45;;;;;;;1.25;0.80;;;16.10;62.90;;;;;;4995323;28;20019;-83
2021/05/24 07:02:10;;;;;;;0.70;0.70;;;16.10;62.90;;;;;;5026260;28;20471;-83
2021/05/24 07:04:37;;;;;;;0.93;0.80;;;16.20;62.90;;;;;;4996578;28;20435;-84
2021/05/24 07:07:04;;;;;;;0.82;0.80;;;16.20;62.90;;;;;;5005334;28;20498;-84
2021/05/24 07:09:30;;;;;;;1.15;0.90;;;16.20;62.90;;;;;;5015487;28;20036;-84
2021/05/24 07:11:56;;;;;;;0.60;0.60;;;16.20;62.90;;;;;;4999184;28;20121;-84
2021/05/24 07:14:21;;;;;;;0.70;0.70;;;16.20;62.90;;;;;;5011143;28;20347;-84
2021/05/24 07:16:47;;;;;;;0.70;0.70;;;16.20;62.90;;;;;;4995783;28;20482;-85
2021/05/24 07:19:13;;;;;;;0.70;0.70;;;16.20;62.90;;;;;;5010804;28;20470;-82
2021/05/24 07:21:39;;;;;;;0.75;0.70;;;16.30;62.90;;;;;;5022803;28;20058;-83
2021/05/24 07:24:05;;;;;;;1.13;0.80;;;16.20;62.90;;;;;;5000867;28;20117;-84
2021/05/24 07:26:30;;;;;;;0.88;0.80;;;16.20;62.90;;;;;;5011098;28;20536;-83
2021/05/24 07:28:56;;;;;;;1.35;0.70;;;16.20;62.90;;;;;;5014100;28;20026;-84
2021/05/24 07:31:22;;;;;;;0.80;0.80;;;16.20;62.90;;;;;;4982565;28;20037;-83
2021/05/24 07:33:48;;;;;;;0.60;0.60;;;16.20;62.90;;;;;;5016907;28;20018;-83
2021/05/24 07:36:13;;;;;;;0.60;0.60;;;16.30;62.90;;;;;;5003759;28;20545;-82
2021/05/24 07:38:39;;;;;;;0.60;0.60;;;16.20;62.90;;;;;;5014558;28;20034;-81
2021/05/24 07:41:05;;;;;;;0.68;0.68;;;16.20;62.90;;;;;;5014254;28;20041;-82
2021/05/24 07:43:31;;;;;;;0.68;0.68;;;16.30;63.00;;;;;;5012199;28;20056;-83
2021/05/24 07:45:57;;;;;;;0.80;0.80;;;16.30;62.90;;;;;;5007174;28;20489;-83
2021/05/24 07:48:22;;;;;;;1.95;0.80;;;16.20;62.90;;;;;;5013409;28;20034;-82
2021/05/24 07:50:48;;;;;;;0.70;0.70;;;16.30;63.00;;;;;;5012091;28;20486;-80
2021/05/24 07:53:14;;;;;;;1.13;0.70;;;16.30;62.90;;;;;;4996624;28;20034;-84
2021/05/24 07:55:43;;;;;;;0.63;0.63;;;16.20;62.90;;;;;;5014007;28;20037;-85
2021/05/24 07:58:08;;;;;;;1.40;0.80;;;16.20;62.90;;;;;;5010035;28;20790;-82
2021/05/24 08:00:34;;;;;;;0.70;0.70;;;16.20;62.90;;;;;;5013567;28;20025;-82
2021/05/24 08:03:00;;;;;;;0.70;0.70;;;16.30;62.90;;;;;;5012206;28;20026;-84
2021/05/24 08:05:26;;;;;;;0.60;0.60;;;16.30;63.00;;;;;;5013376;28;20026;-81
2021/05/24 08:07:52;;;;;;;0.57;0.57;;;16.30;63.00;;;;;;5029568;28;20038;-81
2021/05/24 08:10:18;;;;;;;0.80;0.70;;;16.30;63.00;;;;;;5013620;28;20534;-85
2021/05/24 08:12:45;;;;;;;0.70;0.70;;;16.30;63.00;;;;;;4994452;28;20081;-83
2021/05/24 08:15:30;;;;;;;0.80;0.80;;;16.30;63.10;;;;;;5006633;28;20049;-80
2021/05/24 08:18:05;;;;;;;0.75;0.75;;;16.30;63.10;;;;;;5003649;28;20092;-81
2021/05/24 08:20:31;;;;;;;;;;;16.30;63.10;;;;;;5013646;28;20540;-84
2021/05/24 08:22:58;;;;;;;0.60;0.60;;;16.30;63.00;;;;;;5013166;28;19909;-85
2021/05/24 08:25:24;;;;;;;1.30;1.00;;;16.30;63.10;;;;;;5011973;28;20037;-85
2021/05/24 08:27:50;;;;;;;0.68;0.68;;;16.30;63.10;;;;;;4990782;28;20117;-87
2021/05/24 08:30:18;;;;;;;0.75;0.75;;;16.30;63.10;;;;;;5013241;28;20054;-82
2021/05/24 08:32:43;;;;;;;0.77;0.77;;;16.20;63.10;;;;;;4980337;28;20446;-83
2021/05/24 08:35:10;;;;;;;0.60;0.60;;;16.30;63.20;;;;;;5011199;28;20529;-81
2021/05/24 08:37:36;;;;;;;0.82;0.82;;;16.30;63.20;;;;;;5004376;28;20030;-81
2021/05/24 08:40:05;;;;;;;0.80;0.70;;;16.30;63.20;;;;;;4988885;28;20395;-89
2021/05/24 08:42:33;;;;;;;1.25;0.90;;;16.30;63.20;;;;;;4989866;28;20099;-83
2021/05/24 08:45:01;;;;;;;0.90;0.60;;;16.30;63.20;;;;;;4997275;28;20084;-88
2021/05/24 08:47:31;;;;;;;0.85;0.73;;;16.30;63.20;;;;;;5011970;28;20053;-82
2021/05/24 08:49:58;;;;;;;1.17;0.85;;;16.30;63.30;;;;;;4995390;28;20033;-83
2021/05/24 08:52:24;;;;;;;0.80;0.80;;;16.30;63.30;;;;;;5012216;28;20406;-82
2021/05/24 08:54:51;;;;;;;0.82;0.80;;;16.30;63.30;;;;;;5003059;28;20034;-82
2021/05/24 08:57:17;;;;;;;0.70;0.70;;;16.30;63.30;;;;;;5007565;28;20084;-83
2021/05/24 08:59:43;;;;;;;0.88;0.80;;;16.30;63.30;;;;;;4984816;28;20026;-83
2021/05/24 09:02:11;;;;;;;0.82;0.77;;;16.30;63.30;;;;;;4991501;28;20030;-82
2021/05/24 09:04:45;;;;;;;0.70;0.70;;;16.30;63.30;;;;;;4995741;28;20138;-82
2021/05/24 09:07:12;;;;;;;0.80;0.80;;;16.40;63.40;;;;;;5022769;28;20037;-81
2021/05/24 09:09:38;;;;;;;0.70;0.70;;;16.40;63.40;;;;;;4991022;28;20391;-82
2021/05/24 09:12:17;;;;;;;0.95;0.80;;;16.40;63.40;;;;;;4991971;28;20065;-85
2021/05/24 09:14:53;;;;;;;1.55;0.90;;;16.40;63.40;;;;;;5029053;28;20044;-81
2021/05/24 09:17:19;;;;;;;1.58;1.00;;;16.40;63.50;;;;;;5007496;28;20034;-83
2021/05/24 09:19:45;;;;;;;1.00;0.77;;;16.40;63.40;;;;;;5009118;28;20030;-82
2021/05/24 09:22:10;;;;;;;1.08;0.80;;;16.40;63.50;;;;;;5005616;28;20057;-83
2021/05/24 09:24:38;;;;;;;0.80;0.80;;;16.40;63.50;;;;;;5012447;28;20403;-81
2021/05/24 09:27:07;;;;;;;0.73;0.73;;;16.40;63.50;;;;;;4991420;28;20030;-82
2021/05/24 09:29:47;;;;;;;2.38;1.02;;;16.40;63.50;;;;;;4999932;28;20125;-82
2021/05/24 09:32:21;;;;;;;1.30;0.93;;;16.40;63.60;;;;;;5007024;28;20030;-81
2021/05/24 09:34:49;;;;;;;0.83;0.80;;;16.40;63.50;;;;;;5012793;28;20022;-88
2021/05/24 09:37:16;;;;;;;0.68;0.68;;;16.40;63.60;;;;;;5008869;28;20423;-81
2021/05/24 09:39:43;;;;;;;1.20;0.80;;;16.40;63.60;;;;;;5012167;28;20037;-82
2021/05/24 09:42:12;;;;;;;0.80;0.80;;;16.40;63.60;;;;;;5008706;28;20107;-82
2021/05/24 09:44:46;;;;;;;0.75;0.70;;;16.50;63.70;;;;;;4995943;28;20025;-82
2021/05/24 09:47:13;;;;;;;0.80;0.80;;;16.50;63.70;;;;;;4996173;28;20487;-82
2021/05/24 09:49:39;;;;;;;0.90;0.90;;;16.50;63.70;;;;;;5007761;28;20081;-82
2021/05/24 09:52:05;;;;;;;1.17;0.80;;;16.50;63.70;;;;;;5015459;28;20037;-86
2021/05/24 09:54:37;;;;;;;0.70;0.70;;;16.50;63.70;;;;;;4999250;28;20030;-82
2021/05/24 09:57:09;;;;;;;0.77;0.77;;;16.50;63.70;;;;;;5013654;28;20060;-82
2021/05/24 09:59:35;;;;;;;1.30;0.80;;;16.50;63.70;;;;;;5032397;28;20022;-81
2021/05/24 10:02:05;;;;;;;0.73;0.73;;;16.50;63.70;;;;;;4988683;28;20022;-82
2021/05/24 10:04:34;;;;;;;1.27;0.80;;;16.50;63.70;;;;;;5016268;28;20030;-83
2021/05/24 10:07:02;;;;;;;0.88;0.80;;;16.50;63.70;;;;;;5015232;28;20038;-81
2021/05/24 10:09:30;;;;;;;0.88;0.88;;;16.50;63.70;;;;;;4995301;28;20486;-81
2021/05/24 10:11:57;;;;;;;0.82;0.80;;;16.50;63.70;;;;;;5006976;28;20030;-86
2021/05/24 10:14:24;;;;;;;0.73;0.73;;;16.50;63.70;;;;;;4994503;28;20360;-80
2021/05/24 10:17:02;;;;;;;0.70;0.70;;;16.50;63.70;;;;;;5016480;28;20374;-84
2021/05/24 10:19:28;;;;;;;1.20;1.10;;;16.50;63.80;;;;;;5014728;28;20037;-80
2021/05/24 10:21:54;;;;;;;0.90;0.90;;;16.60;63.80;;;;;;4998691;28;20026;-81
2021/05/24 10:24:21;;;;;;;0.82;0.80;;;16.60;63.80;;;;;;5011586;28;20039;-81
2021/05/24 10:26:48;;;;;;;0.80;0.80;;;16.60;63.80;;;;;;5011754;28;20049;-82
2021/05/24 10:29:17;;;;;;;1.35;0.82;;;16.60;63.80;;;;;;5021674;28;20030;-81
2021/05/24 10:31:43;;;;;;;0.73;0.73;;;16.60;63.80;;;;;;5031289;28;20030;-82
2021/05/24 10:34:24;;;;;;;0.90;0.80;;;16.60;63.70;;;;;;4989689;28;20031;-82
2021/05/24 10:37:05;;;;;;;1.35;1.02;;;16.60;63.80;;;;;;5012211;28;20049;-81
2021/05/24 10:39:53;;;;;;;0.90;0.75;;;16.60;63.80;;;;;;4998217;28;20025;-81
2021/05/24 10:42:42;;;;;;;0.95;0.90;;;16.60;63.80;;;;;;5008522;28;20468;-81
2021/05/24 10:45:23;;;;;;;1.80;1.02;;;16.60;63.80;;;;;;5011488;28;20029;-81
2021/05/24 10:48:00;;;;;;;0.95;0.80;;;16.60;63.80;;;;;;5005635;28;20034;-82
2021/05/24 10:50:31;;;;;;;0.82;0.80;;;16.60;63.80;;;;;;4995304;28;20081;-81
2021/05/24 10:53:19;;;;;;;0.98;0.90;;;16.60;63.80;;;;;;5011535;28;20138;-81
2021/05/24 10:55:49;;;;;;;0.80;0.75;;;16.70;63.90;;;;;;5029210;28;20068;-82
2021/05/24 10:58:17;;;;;;;0.70;0.70;;;16.70;63.90;;;;;;5013976;28;20041;-81
2021/05/24 11:00:52;;;;;;;0.82;0.80;;;16.70;63.90;;;;;;5000712;28;20485;-79
2021/05/24 11:03:18;;;;;;;0.82;0.82;;;16.70;63.90;;;;;;5014200;28;20386;-81
2021/05/24 11:06:06;;;;;;;1.85;0.90;;;16.80;63.90;;;;;;5014306;28;20022;-82
2021/05/24 11:08:34;;;;;;;0.82;0.70;;;16.80;64.00;;;;;;5015485;28;20038;-80
2021/05/24 11:11:24;;;;;;;1.35;0.80;;;16.80;63.90;;;;;;5014113;28;20104;-80
2021/05/24 11:14:10;;;;;;;0.75;0.75;;;16.80;64.00;;;;;;5013763;28;20054;-81
2021/05/24 11:16:38;;;;;;;0.80;0.70;;;16.80;64.00;;;;;;5001736;28;20104;-80
2021/05/24 11:19:08;;;;;;;1.27;0.80;;;16.90;63.90;;;;;;5013461;28;20493;-81
2021/05/24 11:21:35;;;;;;;0.60;0.60;;;16.90;64.00;;;;;;5006184;28;20030;-81
2021/05/24 11:29:01;;;;;;;1.90;0.93;;;16.90;63.90;;;;;;5013593;28;20042;-80
2021/05/24 11:31:56;;;;;;;1.23;0.90;;;16.90;63.90;;;;;;4996845;28;20458;-81
2021/05/24 11:34:33;;;;;;;1.15;1.00;;;16.90;64.10;;;;;;5010917;28;20049;-80
2021/05/24 11:37:01;;;;;;;0.98;0.88;;;17.00;64.00;;;;;;4997257;28;20045;-81
2021/05/24 11:39:33;;;;;;;0.80;0.80;;;17.00;63.90;;;;;;5029856;28;20034;-82
2021/05/24 11:42:02;;;;;;;0.77;0.77;;;17.00;64.00;;;;;;5000465;28;20513;-82
2021/05/24 11:44:39;;;;;;;1.05;0.90;;;17.00;64.00;;;;;;5009686;28;20030;-81
2021/05/24 11:47:07;;;;;;;0.70;0.70;;;17.10;64.10;;;;;;5027247;28;20034;-80
2021/05/24 11:49:41;;;;;;;0.60;0.60;;;17.10;64.00;;;;;;5013381;28;20029;-81
2021/05/24 11:52:09;;;;;;;0.60;0.60;;;17.10;64.00;;;;;;5014586;28;20030;-80
2021/05/24 11:54:36;;;;;;;0.98;0.88;;;17.10;64.00;;;;;;5009726;28;20384;-80
2021/05/24 11:57:05;;;;;;;0.70;0.70;;;17.20;64.00;;;;;;4992431;28;20087;-81
2021/05/24 11:59:32;;;;;;;0.60;0.60;;;17.20;64.00;;;;;;5005773;28;20064;-81
2021/05/24 12:02:00;;;;;;;1.00;0.70;;;17.20;64.00;;;;;;4991164;28;20036;-82
2021/05/24 12:04:28;;;;;;;0.70;0.70;;;17.20;63.90;;;;;;4963826;28;20501;-81
2021/05/24 12:07:00;;;;;;;0.70;0.70;;;17.30;64.00;;;;;;5006869;28;20061;-81
2021/05/24 12:09:45;;;;;;;0.70;0.70;;;17.30;63.90;;;;;;5009165;28;20035;-81
2021/05/24 12:12:18;;;;;;;0.60;0.60;;;17.30;64.00;;;;;;5007515;28;20026;-86
2021/05/24 12:14:54;;;;;;;0.60;0.60;;;17.30;63.90;;;;;;5000596;28;20418;-81
2021/05/24 12:17:25;;;;;;;1.48;0.90;;;17.30;63.90;;;;;;4996371;28;20069;-81
2021/05/24 12:19:53;;;;;;;0.63;0.63;;;17.40;63.90;;;;;;4996405;28;20030;-80
2021/05/24 12:22:22;;;;;;;0.63;0.63;;;17.40;63.90;;;;;;4999525;28;20045;-82
2021/05/24 12:24:48;;;;;;;0.82;0.80;;;17.40;63.90;;;;;;4996443;28;20374;-81
2021/05/24 12:27:17;;;;;;;0.93;0.70;;;17.50;64.00;;;;;;5029069;28;20029;-80
2021/05/24 12:30:01;;;;;;;0.77;0.77;;;17.50;63.90;;;;;;4996307;28;20034;-81
2021/05/24 12:32:34;;;;;;;0.70;0.70;;;17.50;64.00;;;;;;5009386;28;20022;-80
2021/05/24 12:35:06;;;;;;;0.80;0.63;;;17.60;64.00;;;;;;5008569;28;20038;-81
2021/05/24 12:37:32;;;;;;;0.50;0.50;;;17.60;64.00;;;;;;5012633;28;20053;-81
2021/05/24 12:39:58;;;;;;;0.52;0.52;;;17.60;63.90;;;;;;4993009;28;20112;-81
2021/05/24 12:42:24;;;;;;;0.65;0.65;;;17.60;63.90;;;;;;4999121;28;20133;-82
2021/05/24 12:44:50;;;;;;;0.73;0.63;;;17.70;63.90;;;;;;4980066;28;20034;-81
2021/05/24 12:47:19;;;;;;;0.88;0.60;;;17.70;63.90;;;;;;5012005;28;20033;-81
2021/05/24 12:49:47;;;;;;;0.52;0.52;;;17.70;63.90;;;;;;5012134;28;20034;-81
2021/05/24 12:52:16;;;;;;;0.73;0.70;;;17.70;63.90;;;;;;5012231;28;20112;-81
2021/05/24 12:54:48;;;;;;;0.90;0.70;;;17.80;63.90;;;;;;5008540;28;20088;-81
2021/05/24 12:57:32;;;;;;;0.60;0.60;;;17.80;63.90;;;;;;4995839;28;20526;-81